createdAt,value
2018-07-07T00:00:55.221Z,2.20
2018-07-07T00:01:55.202Z,2.20
2018-07-07T00:02:55.230Z,2.20
2018-07-07T00:03:55.182Z,2.20
2018-07-07T00:04:55.228Z,2.20
2018-07-07T00:05:55.292Z,2.20
2018-07-07T00:06:55.270Z,2.20
2018-07-07T00:07:55.203Z,2.20
2018-07-07T00:08:55.238Z,2.20
2018-07-07T00:09:55.204Z,2.60
2018-07-07T00:10:55.198Z,2.60
2018-07-07T00:11:55.273Z,2.60
2018-07-07T00:12:55.273Z,2.60
2018-07-07T00:13:55.273Z,2.60
2018-07-07T00:14:55.289Z,2.60
2018-07-07T00:15:55.206Z,2.60
2018-07-07T00:16:55.207Z,2.60
2018-07-07T00:17:55.204Z,2.60
2018-07-07T00:18:55.275Z,2.60
2018-07-07T00:19:55.317Z,2.10
2018-07-07T00:20:55.246Z,2.10
2018-07-07T00:21:55.298Z,2.10
2018-07-07T00:22:55.292Z,2.10
2018-07-07T00:23:55.253Z,2.10
2018-07-07T00:24:55.282Z,2.10
2018-07-07T00:25:55.316Z,2.10
2018-07-07T00:26:55.251Z,2.10
2018-07-07T00:27:55.221Z,2.10
2018-07-07T00:28:55.252Z,2.10
2018-07-07T00:29:55.187Z,0.90
2018-07-07T00:30:55.310Z,0.90
2018-07-07T00:31:55.313Z,0.90
2018-07-07T00:32:55.286Z,0.90
2018-07-07T00:33:55.282Z,0.90
2018-07-07T00:34:55.283Z,0.90
2018-07-07T00:35:55.246Z,0.90
2018-07-07T00:36:55.247Z,0.90
2018-07-07T00:37:55.204Z,0.90
2018-07-07T00:38:55.292Z,0.90
2018-07-07T00:39:55.193Z,1.90
2018-07-07T00:40:55.230Z,1.90
2018-07-07T00:41:55.257Z,1.90
2018-07-07T00:42:55.286Z,1.90
2018-07-07T00:43:55.210Z,1.90
2018-07-07T00:44:55.228Z,1.90
2018-07-07T00:45:55.196Z,1.90
2018-07-07T00:46:55.312Z,1.90
2018-07-07T00:47:55.324Z,1.90
2018-07-07T00:48:55.296Z,1.90
2018-07-07T00:49:55.337Z,2.60
2018-07-07T00:50:55.316Z,2.60
2018-07-07T00:51:55.329Z,2.60
2018-07-07T00:52:55.267Z,2.60
2018-07-07T00:53:55.328Z,2.60
2018-07-07T00:54:55.268Z,2.60
2018-07-07T00:55:55.261Z,2.60
2018-07-07T00:56:55.298Z,2.60
2018-07-07T00:57:55.360Z,2.60
2018-07-07T00:58:55.201Z,2.60
2018-07-07T00:59:55.171Z,2.20
2018-07-07T01:00:55.375Z,2.20
2018-07-07T01:01:55.296Z,2.20
2018-07-07T01:02:55.219Z,2.20
2018-07-07T01:03:55.223Z,2.20
2018-07-07T01:04:55.180Z,2.20
2018-07-07T01:05:55.300Z,2.20
2018-07-07T01:06:55.301Z,2.20
2018-07-07T01:07:55.210Z,2.20
2018-07-07T01:08:55.301Z,2.20
2018-07-07T01:09:55.311Z,1.20
2018-07-07T01:10:55.314Z,1.20
2018-07-07T01:11:55.255Z,1.20
2018-07-07T01:12:55.311Z,1.20
2018-07-07T01:13:55.242Z,1.20
2018-07-07T01:14:55.313Z,1.20
2018-07-07T01:15:55.244Z,1.20
2018-07-07T01:16:55.245Z,1.20
2018-07-07T01:17:55.271Z,1.20
2018-07-07T01:18:55.244Z,1.20
2018-07-07T01:19:55.308Z,3.20
2018-07-07T01:20:55.191Z,3.20
2018-07-07T01:21:55.265Z,3.20
2018-07-07T01:22:55.304Z,3.20
2018-07-07T01:23:55.313Z,3.20
2018-07-07T01:24:55.233Z,3.20
2018-07-07T01:25:55.244Z,3.20
2018-07-07T01:26:55.240Z,3.20
2018-07-07T01:27:55.314Z,3.20
2018-07-07T01:28:55.321Z,3.20
2018-07-07T01:29:55.357Z,2.50
2018-07-07T01:30:55.288Z,2.50
2018-07-07T01:31:55.318Z,2.50
2018-07-07T01:32:55.355Z,2.50
2018-07-07T01:33:55.244Z,2.50
2018-07-07T01:34:55.347Z,2.50
2018-07-07T01:35:55.290Z,2.50
2018-07-07T01:36:55.263Z,2.50
2018-07-07T01:37:55.328Z,2.50
2018-07-07T01:38:55.320Z,2.50
2018-07-07T01:39:55.320Z,2.00
2018-07-07T01:40:55.250Z,2.00
2018-07-07T01:41:55.250Z,2.00
2018-07-07T01:42:55.236Z,2.00
2018-07-07T01:43:55.290Z,2.00
2018-07-07T01:44:55.253Z,2.00
2018-07-07T01:45:55.358Z,2.00
2018-07-07T01:46:55.323Z,2.00
2018-07-07T01:47:55.209Z,2.00
2018-07-07T01:48:55.256Z,2.00
2018-07-07T01:49:55.241Z,3.00
2018-07-07T01:50:55.189Z,3.00
2018-07-07T01:51:55.194Z,3.00
2018-07-07T01:52:55.284Z,3.00
2018-07-07T01:53:55.255Z,3.00
2018-07-07T01:54:55.358Z,3.00
2018-07-07T01:55:55.244Z,3.00
2018-07-07T01:56:55.197Z,3.00
2018-07-07T01:57:55.196Z,3.00
2018-07-07T01:58:55.297Z,3.00
2018-07-07T01:59:55.374Z,0.80
2018-07-07T02:00:55.338Z,0.80
2018-07-07T02:01:55.313Z,0.80
2018-07-07T02:02:55.307Z,0.80
2018-07-07T02:03:55.345Z,0.80
2018-07-07T02:04:55.248Z,0.80
2018-07-07T02:05:55.345Z,0.80
2018-07-07T02:06:55.326Z,0.80
2018-07-07T02:07:55.270Z,0.80
2018-07-07T02:08:55.274Z,0.80
2018-07-07T02:09:55.273Z,2.60
2018-07-07T02:10:55.343Z,2.60
2018-07-07T02:11:55.279Z,2.60
2018-07-07T02:12:55.338Z,2.60
2018-07-07T02:13:55.345Z,2.60
2018-07-07T02:14:55.340Z,2.60
2018-07-07T02:15:55.344Z,2.60
2018-07-07T02:16:55.273Z,2.60
2018-07-07T02:17:55.269Z,2.60
2018-07-07T02:18:55.338Z,2.60
2018-07-07T02:19:55.352Z,3.99
2018-07-07T02:20:55.273Z,3.99
2018-07-07T02:21:55.360Z,3.99
2018-07-07T02:22:55.401Z,3.99
2018-07-07T02:23:55.386Z,3.99
2018-07-07T02:24:55.386Z,3.99
2018-07-07T02:25:55.379Z,3.99
2018-07-07T02:26:55.360Z,3.99
2018-07-07T02:27:55.287Z,3.99
2018-07-07T02:28:55.323Z,3.99
2018-07-07T02:29:55.323Z,2.80
2018-07-07T02:30:55.341Z,2.80
2018-07-07T02:31:55.394Z,2.80
2018-07-07T02:32:55.361Z,2.80
2018-07-07T02:33:55.266Z,2.80
2018-07-07T02:34:55.367Z,2.80
2018-07-07T02:35:55.393Z,2.80
2018-07-07T02:36:55.359Z,2.80
2018-07-07T02:37:55.371Z,2.80
2018-07-07T02:38:55.341Z,2.80
2018-07-07T02:39:55.388Z,2.50
2018-07-07T02:40:55.291Z,2.50
2018-07-07T02:41:55.281Z,2.50
2018-07-07T02:42:55.343Z,2.50
2018-07-07T02:43:55.365Z,2.50
2018-07-07T02:44:55.402Z,2.50
2018-07-07T02:45:55.340Z,2.50
2018-07-07T02:46:55.372Z,2.50
2018-07-07T02:47:55.380Z,2.50
2018-07-07T02:48:55.399Z,2.50
2018-07-07T02:49:55.343Z,2.50
2018-07-07T02:50:55.409Z,0.80
2018-07-07T02:51:55.275Z,0.80
2018-07-07T02:52:55.380Z,0.80
2018-07-07T02:53:55.405Z,0.80
2018-07-07T02:54:55.379Z,0.80
2018-07-07T02:55:55.361Z,0.80
2018-07-07T02:56:55.411Z,0.80
2018-07-07T02:57:55.396Z,0.80
2018-07-07T02:58:55.386Z,0.80
2018-07-07T02:59:55.285Z,0.80
2018-07-07T03:00:55.415Z,2.60
2018-07-07T03:01:55.354Z,2.60
2018-07-07T03:02:55.365Z,2.60
2018-07-07T03:03:55.414Z,2.60
2018-07-07T03:04:55.412Z,2.60
2018-07-07T03:05:55.308Z,2.60
2018-07-07T03:06:55.337Z,2.60
2018-07-07T03:07:55.428Z,2.60
2018-07-07T03:08:55.388Z,2.60
2018-07-07T03:09:55.326Z,2.60
2018-07-07T03:10:55.266Z,1.00
2018-07-07T03:11:55.386Z,1.00
2018-07-07T03:12:55.385Z,1.00
2018-07-07T03:13:55.349Z,1.00
2018-07-07T03:14:55.385Z,1.00
2018-07-07T03:15:55.387Z,1.00
2018-07-07T03:16:55.385Z,1.00
2018-07-07T03:17:55.313Z,1.00
2018-07-07T03:18:55.320Z,1.00
2018-07-07T03:19:55.389Z,1.00
2018-07-07T03:20:55.395Z,1.30
2018-07-07T03:21:55.335Z,1.30
2018-07-07T03:22:55.378Z,1.30
2018-07-07T03:23:55.341Z,1.30
2018-07-07T03:24:55.364Z,1.30
2018-07-07T03:25:55.438Z,1.30
2018-07-07T03:26:55.441Z,1.30
2018-07-07T03:27:55.381Z,1.30
2018-07-07T03:28:55.373Z,1.30
2018-07-07T03:29:55.422Z,1.30
2018-07-07T03:30:55.330Z,5.00
2018-07-07T03:31:55.330Z,5.00
2018-07-07T03:32:55.376Z,5.00
2018-07-07T03:33:55.331Z,5.00
2018-07-07T03:34:55.292Z,5.00
2018-07-07T03:35:55.363Z,5.00
2018-07-07T03:36:55.326Z,5.00
2018-07-07T03:37:55.296Z,5.00
2018-07-07T03:38:55.276Z,5.00
2018-07-07T03:39:55.355Z,5.00
2018-07-07T03:40:55.280Z,3.00
2018-07-07T03:41:55.278Z,3.00
2018-07-07T03:42:55.405Z,3.00
2018-07-07T03:43:55.278Z,3.00
2018-07-07T03:44:55.281Z,3.00
2018-07-07T03:45:55.397Z,3.00
2018-07-07T03:46:55.394Z,3.00
2018-07-07T03:47:55.297Z,3.00
2018-07-07T03:48:55.401Z,3.00
2018-07-07T03:49:55.413Z,3.00
2018-07-07T03:50:55.333Z,2.90
2018-07-07T03:51:55.447Z,2.90
2018-07-07T03:52:55.394Z,2.90
2018-07-07T03:53:55.349Z,2.90
2018-07-07T03:54:55.334Z,2.90
2018-07-07T03:55:55.312Z,2.90
2018-07-07T03:56:55.379Z,2.90
2018-07-07T03:57:55.443Z,2.90
2018-07-07T03:58:55.368Z,2.90
2018-07-07T03:59:55.477Z,2.90
2018-07-07T04:00:55.344Z,3.90
2018-07-07T04:01:55.344Z,3.90
2018-07-07T04:02:55.444Z,3.90
2018-07-07T04:03:55.447Z,3.90
2018-07-07T04:04:55.448Z,3.90
2018-07-07T04:05:55.398Z,3.90
2018-07-07T04:06:55.459Z,3.90
2018-07-07T04:07:55.401Z,3.90
2018-07-07T04:08:55.388Z,3.90
2018-07-07T04:09:55.452Z,3.90
2018-07-07T04:10:55.393Z,2.40
2018-07-07T04:11:55.387Z,2.40
2018-07-07T04:12:55.338Z,2.40
2018-07-07T04:13:55.387Z,2.40
2018-07-07T04:14:55.409Z,2.40
2018-07-07T04:15:55.404Z,2.40
2018-07-07T04:16:55.454Z,2.40
2018-07-07T04:17:55.511Z,2.40
2018-07-07T04:18:55.468Z,2.40
2018-07-07T04:19:55.360Z,2.40
2018-07-07T04:20:55.461Z,1.80
2018-07-07T04:21:55.462Z,1.80
2018-07-07T04:22:55.440Z,1.80
2018-07-07T04:23:55.463Z,1.80
2018-07-07T04:24:55.358Z,1.80
2018-07-07T04:25:55.475Z,1.80
2018-07-07T04:26:55.471Z,1.80
2018-07-07T04:27:55.436Z,1.80
2018-07-07T04:28:55.445Z,1.80
2018-07-07T04:29:55.416Z,1.80
2018-07-07T04:30:55.360Z,3.40
2018-07-07T04:31:55.480Z,3.40
2018-07-07T04:32:55.470Z,3.40
2018-07-07T04:33:55.445Z,3.40
2018-07-07T04:34:55.469Z,3.40
2018-07-07T04:35:55.446Z,3.40
2018-07-07T04:36:55.445Z,3.40
2018-07-07T04:37:55.414Z,3.40
2018-07-07T04:38:55.452Z,3.40
2018-07-07T04:39:55.442Z,3.40
2018-07-07T04:40:55.440Z,3.40
2018-07-07T04:41:55.437Z,3.40
2018-07-07T04:42:55.439Z,3.40
2018-07-07T04:43:55.401Z,3.40
2018-07-07T04:44:55.359Z,3.40
2018-07-07T04:45:55.456Z,3.40
2018-07-07T04:46:55.403Z,3.40
2018-07-07T04:47:55.339Z,3.40
2018-07-07T04:48:55.319Z,3.40
2018-07-07T04:49:55.448Z,3.40
2018-07-07T04:50:55.421Z,2.80
2018-07-07T04:51:55.455Z,2.80
2018-07-07T04:52:55.412Z,2.80
2018-07-07T04:53:55.460Z,2.80
2018-07-07T04:54:55.395Z,2.80
2018-07-07T04:55:55.418Z,2.80
2018-07-07T04:56:55.454Z,2.80
2018-07-07T04:57:55.419Z,2.80
2018-07-07T04:58:55.495Z,2.80
2018-07-07T04:59:55.487Z,2.80
2018-07-07T05:00:55.493Z,2.60
2018-07-07T05:01:55.491Z,2.60
2018-07-07T05:02:55.416Z,2.60
2018-07-07T05:03:55.427Z,2.60
2018-07-07T05:04:55.466Z,2.60
2018-07-07T05:05:55.426Z,2.60
2018-07-07T05:06:55.465Z,2.60
2018-07-07T05:07:55.375Z,2.60
2018-07-07T05:08:55.432Z,2.60
2018-07-07T05:09:55.436Z,2.60
2018-07-07T05:10:55.471Z,2.90
2018-07-07T05:11:55.440Z,2.90
2018-07-07T05:12:55.448Z,2.90
2018-07-07T05:13:55.376Z,2.90
2018-07-07T05:14:55.447Z,2.90
2018-07-07T05:15:55.439Z,2.90
2018-07-07T05:16:55.406Z,2.90
2018-07-07T05:17:55.499Z,2.90
2018-07-07T05:18:55.501Z,2.90
2018-07-07T05:19:55.473Z,2.90
2018-07-07T05:20:55.377Z,3.00
2018-07-07T05:21:55.433Z,3.00
2018-07-07T05:22:55.408Z,3.00
2018-07-07T05:23:55.372Z,3.00
2018-07-07T05:24:55.468Z,3.00
2018-07-07T05:25:55.463Z,3.00
2018-07-07T05:26:55.350Z,3.00
2018-07-07T05:27:55.474Z,3.00
2018-07-07T05:28:55.387Z,3.00
2018-07-07T05:29:55.413Z,3.00
2018-07-07T05:30:55.511Z,1.80
2018-07-07T05:31:55.565Z,1.80
2018-07-07T05:32:55.482Z,1.80
2018-07-07T05:33:55.416Z,1.80
2018-07-07T05:34:55.415Z,1.80
2018-07-07T05:35:55.439Z,1.80
2018-07-07T05:36:55.484Z,1.80
2018-07-07T05:37:55.377Z,1.80
2018-07-07T05:38:55.423Z,1.80
2018-07-07T05:39:55.490Z,1.80
2018-07-07T05:40:55.420Z,2.70
2018-07-07T05:41:55.421Z,2.70
2018-07-07T05:42:55.464Z,2.70
2018-07-07T05:43:55.425Z,2.70
2018-07-07T05:44:55.492Z,2.70
2018-07-07T05:45:55.494Z,2.70
2018-07-07T05:46:55.428Z,2.70
2018-07-07T05:47:55.507Z,2.70
2018-07-07T05:48:55.496Z,2.70
2018-07-07T05:49:55.439Z,2.70
2018-07-07T05:50:55.428Z,1.50
2018-07-07T05:51:55.427Z,1.50
2018-07-07T05:52:55.427Z,1.50
2018-07-07T05:53:55.433Z,1.50
2018-07-07T05:54:55.499Z,1.50
2018-07-07T05:55:55.509Z,1.50
2018-07-07T05:56:55.435Z,1.50
2018-07-07T05:57:55.503Z,1.50
2018-07-07T05:58:55.438Z,1.50
2018-07-07T05:59:55.438Z,1.50
2018-07-07T06:00:55.435Z,5.40
2018-07-07T06:01:55.438Z,5.40
2018-07-07T06:02:55.499Z,5.40
2018-07-07T06:03:55.467Z,5.40
2018-07-07T06:04:55.444Z,5.40
2018-07-07T06:05:55.507Z,5.40
2018-07-07T06:06:55.444Z,5.40
2018-07-07T06:07:55.527Z,5.40
2018-07-07T06:08:55.512Z,5.40
2018-07-07T06:09:55.444Z,5.40
2018-07-07T06:10:55.498Z,2.00
2018-07-07T06:11:55.499Z,2.00
2018-07-07T06:12:55.378Z,2.00
2018-07-07T06:13:55.429Z,2.00
2018-07-07T06:14:55.511Z,2.00
2018-07-07T06:15:55.417Z,2.00
2018-07-07T06:16:55.417Z,2.00
2018-07-07T06:17:55.419Z,2.00
2018-07-07T06:18:55.463Z,2.00
2018-07-07T06:19:55.510Z,2.00
2018-07-07T06:20:55.513Z,2.50
2018-07-07T06:21:55.516Z,2.50
2018-07-07T06:22:55.517Z,2.50
2018-07-07T06:23:55.448Z,2.50
2018-07-07T06:24:55.519Z,2.50
2018-07-07T06:25:55.519Z,2.50
2018-07-07T06:26:55.454Z,2.50
2018-07-07T06:27:55.520Z,2.50
2018-07-07T06:28:55.495Z,2.50
2018-07-07T06:29:55.459Z,2.50
2018-07-07T06:30:55.520Z,5.00
2018-07-07T06:31:55.510Z,5.00
2018-07-07T06:32:55.457Z,5.00
2018-07-07T06:33:55.506Z,5.00
2018-07-07T06:34:55.413Z,5.00
2018-07-07T06:35:55.515Z,5.00
2018-07-07T06:36:55.516Z,5.00
2018-07-07T06:37:55.448Z,5.00
2018-07-07T06:38:55.412Z,5.00
2018-07-07T06:39:55.435Z,5.00
2018-07-07T06:40:55.553Z,4.60
2018-07-07T06:41:55.495Z,4.60
2018-07-07T06:42:55.504Z,4.60
2018-07-07T06:43:55.510Z,4.60
2018-07-07T06:44:55.494Z,4.60
2018-07-07T06:45:55.531Z,4.60
2018-07-07T06:46:55.438Z,4.60
2018-07-07T06:47:55.451Z,4.60
2018-07-07T06:48:55.435Z,4.60
2018-07-07T06:49:55.473Z,4.60
2018-07-07T06:50:55.526Z,4.10
2018-07-07T06:51:55.521Z,4.10
2018-07-07T06:52:55.499Z,4.10
2018-07-07T06:53:55.569Z,4.10
2018-07-07T06:54:55.401Z,4.10
2018-07-07T06:55:55.567Z,4.10
2018-07-07T06:56:55.473Z,4.10
2018-07-07T06:57:55.524Z,4.10
2018-07-07T06:58:55.473Z,4.10
2018-07-07T06:59:55.433Z,4.10
2018-07-07T07:00:55.449Z,4.00
2018-07-07T07:01:55.479Z,4.00
2018-07-07T07:02:55.433Z,4.00
2018-07-07T07:03:55.500Z,4.00
2018-07-07T07:04:55.499Z,4.00
2018-07-07T07:05:55.453Z,4.00
2018-07-07T07:06:55.544Z,4.00
2018-07-07T07:07:55.478Z,4.00
2018-07-07T07:08:55.453Z,4.00
2018-07-07T07:09:55.536Z,4.00
2018-07-07T07:10:55.549Z,2.80
2018-07-07T07:11:55.535Z,2.80
2018-07-07T07:12:55.568Z,2.80
2018-07-07T07:13:55.510Z,2.80
2018-07-07T07:14:55.461Z,2.80
2018-07-07T07:15:55.548Z,2.80
2018-07-07T07:16:55.584Z,2.80
2018-07-07T07:17:55.549Z,2.80
2018-07-07T07:18:55.571Z,2.80
2018-07-07T07:19:55.611Z,2.80
2018-07-07T07:20:55.582Z,8.30
2018-07-07T07:21:55.582Z,8.30
2018-07-07T07:22:55.567Z,8.30
2018-07-07T07:23:55.562Z,8.30
2018-07-07T07:24:55.574Z,8.30
2018-07-07T07:25:55.624Z,8.30
2018-07-07T07:26:55.554Z,8.30
2018-07-07T07:27:55.463Z,8.30
2018-07-07T07:28:55.539Z,8.30
2018-07-07T07:29:55.566Z,8.30
2018-07-07T07:30:55.537Z,4.60
2018-07-07T07:31:55.470Z,4.60
2018-07-07T07:32:55.526Z,4.60
2018-07-07T07:33:55.590Z,4.60
2018-07-07T07:34:55.565Z,4.60
2018-07-07T07:35:55.524Z,4.60
2018-07-07T07:36:55.477Z,4.60
2018-07-07T07:37:55.603Z,4.60
2018-07-07T07:38:55.478Z,4.60
2018-07-07T07:39:55.544Z,4.60
2018-07-07T07:40:55.570Z,5.40
2018-07-07T07:41:55.526Z,5.40
2018-07-07T07:42:55.564Z,5.40
2018-07-07T07:43:55.534Z,5.40
2018-07-07T07:44:55.494Z,5.40
2018-07-07T07:45:55.510Z,5.40
2018-07-07T07:46:55.545Z,5.40
2018-07-07T07:47:55.543Z,5.40
2018-07-07T07:48:55.471Z,5.40
2018-07-07T07:49:55.543Z,5.40
2018-07-07T07:50:55.607Z,2.20
2018-07-07T07:51:55.546Z,2.20
2018-07-07T07:52:55.616Z,2.20
2018-07-07T07:53:55.475Z,2.20
2018-07-07T07:54:55.534Z,2.20
2018-07-07T07:55:55.516Z,2.20
2018-07-07T07:56:55.536Z,2.20
2018-07-07T07:57:55.547Z,2.20
2018-07-07T07:58:55.558Z,2.20
2018-07-07T07:59:55.603Z,2.20
2018-07-07T08:00:55.594Z,3.50
2018-07-07T08:01:55.492Z,3.50
2018-07-07T08:02:55.608Z,3.50
2018-07-07T08:03:55.483Z,3.50
2018-07-07T08:04:55.692Z,3.50
2018-07-07T08:05:55.489Z,3.50
2018-07-07T08:06:55.603Z,3.50
2018-07-07T08:07:55.511Z,3.50
2018-07-07T08:08:55.556Z,3.50
2018-07-07T08:09:55.539Z,3.50
2018-07-07T08:10:55.587Z,3.70
2018-07-07T08:11:55.523Z,3.70
2018-07-07T08:12:55.591Z,3.70
2018-07-07T08:13:55.534Z,3.70
2018-07-07T08:14:55.527Z,3.70
2018-07-07T08:15:55.484Z,3.70
2018-07-07T08:16:55.526Z,3.70
2018-07-07T08:17:55.590Z,3.70
2018-07-07T08:18:55.529Z,3.70
2018-07-07T08:19:55.528Z,3.70
2018-07-07T08:20:55.626Z,7.40
2018-07-07T08:21:55.582Z,7.40
2018-07-07T08:22:55.626Z,7.40
2018-07-07T08:23:55.601Z,7.40
2018-07-07T08:24:55.507Z,7.40
2018-07-07T08:25:55.557Z,7.40
2018-07-07T08:26:55.553Z,7.40
2018-07-07T08:27:55.508Z,7.40
2018-07-07T08:28:55.641Z,7.40
2018-07-07T08:29:55.628Z,7.40
2018-07-07T08:30:55.621Z,7.40
2018-07-07T08:31:55.589Z,4.40
2018-07-07T08:32:55.493Z,4.40
2018-07-07T08:33:55.603Z,4.40
2018-07-07T08:34:55.553Z,4.40
2018-07-07T08:35:55.586Z,4.40
2018-07-07T08:36:55.553Z,4.40
2018-07-07T08:37:55.533Z,4.40
2018-07-07T08:38:55.556Z,4.40
2018-07-07T08:39:55.593Z,4.40
2018-07-07T08:40:55.597Z,4.40
2018-07-07T08:41:55.583Z,2.90
2018-07-07T08:42:55.602Z,2.90
2018-07-07T08:43:55.520Z,2.90
2018-07-07T08:44:55.548Z,2.90
2018-07-07T08:45:55.546Z,2.90
2018-07-07T08:46:55.518Z,2.90
2018-07-07T08:47:55.567Z,2.90
2018-07-07T08:48:55.604Z,2.90
2018-07-07T08:49:55.607Z,2.90
2018-07-07T08:50:55.479Z,2.90
2018-07-07T08:51:55.550Z,4.30
2018-07-07T08:52:55.616Z,4.30
2018-07-07T08:53:55.618Z,4.30
2018-07-07T08:54:55.553Z,4.30
2018-07-07T08:55:55.553Z,4.30
2018-07-07T08:56:55.618Z,4.30
2018-07-07T08:57:55.558Z,4.30
2018-07-07T08:58:55.621Z,4.30
2018-07-07T08:59:55.617Z,4.30
2018-07-07T09:00:55.556Z,4.30
2018-07-07T09:01:55.627Z,4.30
2018-07-07T09:02:55.623Z,4.30
2018-07-07T09:03:55.622Z,4.30
2018-07-07T09:04:55.565Z,4.30
2018-07-07T09:05:55.648Z,4.30
2018-07-07T09:06:55.549Z,4.30
2018-07-07T09:07:55.649Z,4.30
2018-07-07T09:08:55.558Z,4.30
2018-07-07T09:09:55.562Z,4.30
2018-07-07T09:10:55.631Z,4.30
2018-07-07T09:11:55.566Z,4.70
2018-07-07T09:12:55.628Z,4.70
2018-07-07T09:13:55.632Z,4.70
2018-07-07T09:14:55.630Z,4.70
2018-07-07T09:15:55.570Z,4.70
2018-07-07T09:16:55.634Z,4.70
2018-07-07T09:17:55.569Z,4.70
2018-07-07T09:18:55.662Z,4.70
2018-07-07T09:19:55.530Z,4.70
2018-07-07T09:20:55.641Z,4.70
2018-07-07T09:21:55.619Z,3.90
2018-07-07T09:22:55.671Z,3.90
2018-07-07T09:23:55.577Z,3.90
2018-07-07T09:24:55.637Z,3.90
2018-07-07T09:25:55.601Z,3.90
2018-07-07T09:26:55.617Z,3.90
2018-07-07T09:27:55.561Z,3.90
2018-07-07T09:28:55.660Z,3.90
2018-07-07T09:29:55.670Z,3.90
2018-07-07T09:30:55.786Z,3.90
2018-07-07T09:31:55.709Z,2.80
2018-07-07T09:32:55.649Z,2.80
2018-07-07T09:33:55.641Z,2.80
2018-07-07T09:34:55.647Z,2.80
2018-07-07T09:35:55.578Z,2.80
2018-07-07T09:36:55.662Z,2.80
2018-07-07T09:37:55.579Z,2.80
2018-07-07T09:38:55.647Z,2.80
2018-07-07T09:39:55.586Z,2.80
2018-07-07T09:40:55.647Z,2.80
2018-07-07T09:41:55.614Z,3.20
2018-07-07T09:42:55.571Z,3.20
2018-07-07T09:43:55.625Z,3.20
2018-07-07T09:44:55.619Z,3.20
2018-07-07T09:45:55.613Z,3.20
2018-07-07T09:46:55.625Z,3.20
2018-07-07T09:47:55.611Z,3.20
2018-07-07T09:48:55.680Z,3.20
2018-07-07T09:49:55.636Z,3.20
2018-07-07T09:50:55.624Z,3.20
2018-07-07T09:51:55.556Z,3.70
2018-07-07T09:52:55.620Z,3.70
2018-07-07T09:53:55.558Z,3.70
2018-07-07T09:54:55.623Z,3.70
2018-07-07T09:55:55.654Z,3.70
2018-07-07T09:56:55.696Z,3.70
2018-07-07T09:57:55.569Z,3.70
2018-07-07T09:58:55.640Z,3.70
2018-07-07T09:59:55.564Z,3.70
2018-07-07T10:00:55.646Z,3.70
2018-07-07T10:01:55.695Z,2.90
2018-07-07T10:02:55.698Z,2.90
2018-07-07T10:03:55.565Z,2.90
2018-07-07T10:04:55.633Z,2.90
2018-07-07T10:05:55.692Z,2.90
2018-07-07T10:06:55.637Z,2.90
2018-07-07T10:07:55.588Z,2.90
2018-07-07T10:08:55.695Z,2.90
2018-07-07T10:09:55.718Z,2.90
2018-07-07T10:10:55.708Z,2.90
2018-07-07T10:11:55.615Z,5.60
2018-07-07T10:12:55.599Z,5.60
2018-07-07T10:13:55.608Z,5.60
2018-07-07T10:14:55.674Z,5.60
2018-07-07T10:15:55.604Z,5.60
2018-07-07T10:16:55.678Z,5.60
2018-07-07T10:17:55.767Z,5.60
2018-07-07T10:18:55.613Z,5.60
2018-07-07T10:19:55.613Z,5.60
2018-07-07T10:20:55.691Z,5.60
2018-07-07T10:21:55.675Z,2.80
2018-07-07T10:22:55.699Z,2.80
2018-07-07T10:23:55.708Z,2.80
2018-07-07T10:24:55.616Z,2.80
2018-07-07T10:25:55.645Z,2.80
2018-07-07T10:26:55.697Z,2.80
2018-07-07T10:27:55.654Z,2.80
2018-07-07T10:28:55.719Z,2.80
2018-07-07T10:29:55.643Z,2.80
2018-07-07T10:30:55.582Z,2.80
2018-07-07T10:31:55.554Z,3.10
2018-07-07T10:32:55.577Z,3.10
2018-07-07T10:33:55.634Z,3.10
2018-07-07T10:34:55.647Z,3.10
2018-07-07T10:35:55.546Z,3.10
2018-07-07T10:36:55.668Z,3.10
2018-07-07T10:37:55.561Z,3.10
2018-07-07T10:38:55.575Z,3.10
2018-07-07T10:39:55.579Z,3.10
2018-07-07T10:40:55.571Z,3.10
2018-07-07T10:41:55.620Z,4.90
2018-07-07T10:42:55.689Z,4.90
2018-07-07T10:43:55.625Z,4.90
2018-07-07T10:44:55.624Z,4.90
2018-07-07T10:45:56.045Z,4.90
2018-07-07T10:46:55.727Z,4.90
2018-07-07T10:47:55.617Z,4.90
2018-07-07T10:48:55.763Z,4.90
2018-07-07T10:49:55.631Z,4.90
2018-07-07T10:50:55.694Z,4.90
2018-07-07T10:51:55.690Z,2.50
2018-07-07T10:52:55.751Z,2.50
2018-07-07T10:53:55.604Z,2.50
2018-07-07T10:54:55.660Z,2.50
2018-07-07T10:55:55.732Z,2.50
2018-07-07T10:56:55.677Z,2.50
2018-07-07T10:57:55.656Z,2.50
2018-07-07T10:58:55.677Z,2.50
2018-07-07T10:59:55.682Z,2.50
2018-07-07T11:00:55.726Z,2.50
2018-07-07T11:01:55.729Z,3.70
2018-07-07T11:02:55.747Z,3.70
2018-07-07T11:03:55.705Z,3.70
2018-07-07T11:04:55.739Z,3.70
2018-07-07T11:05:55.730Z,3.70
2018-07-07T11:06:55.669Z,3.70
2018-07-07T11:07:55.747Z,3.70
2018-07-07T11:08:55.675Z,3.70
2018-07-07T11:09:55.747Z,3.70
2018-07-07T11:10:55.744Z,3.70
2018-07-07T11:11:55.780Z,5.99
2018-07-07T11:12:55.736Z,5.99
2018-07-07T11:13:55.737Z,5.99
2018-07-07T11:14:55.665Z,5.99
2018-07-07T11:15:55.665Z,5.99
2018-07-07T11:16:55.786Z,5.99
2018-07-07T11:17:55.615Z,5.99
2018-07-07T11:18:55.693Z,5.99
2018-07-07T11:19:55.763Z,5.99
2018-07-07T11:20:55.720Z,5.99
2018-07-07T11:21:55.749Z,4.20
2018-07-07T11:22:55.807Z,4.20
2018-07-07T11:23:55.601Z,4.20
2018-07-07T11:24:55.651Z,4.20
2018-07-07T11:25:55.719Z,4.20
2018-07-07T11:26:55.720Z,4.20
2018-07-07T11:27:55.655Z,4.20
2018-07-07T11:28:55.721Z,4.20
2018-07-07T11:29:55.656Z,4.20
2018-07-07T11:30:55.725Z,4.20
2018-07-07T11:31:55.656Z,3.30
2018-07-07T11:32:55.657Z,3.30
2018-07-07T11:33:55.667Z,3.30
2018-07-07T11:34:55.729Z,3.30
2018-07-07T11:35:55.725Z,3.30
2018-07-07T11:36:55.819Z,3.30
2018-07-07T11:37:55.664Z,3.30
2018-07-07T11:38:55.663Z,3.30
2018-07-07T11:39:55.755Z,3.30
2018-07-07T11:40:55.728Z,3.30
2018-07-07T11:41:55.732Z,4.20
2018-07-07T11:42:55.711Z,4.20
2018-07-07T11:43:55.673Z,4.20
2018-07-07T11:44:55.656Z,4.20
2018-07-07T11:45:55.640Z,4.20
2018-07-07T11:46:55.703Z,4.20
2018-07-07T11:47:55.701Z,4.20
2018-07-07T11:48:55.732Z,4.20
2018-07-07T11:49:55.701Z,4.20
2018-07-07T11:50:55.692Z,4.20
2018-07-07T11:51:55.701Z,2.60
2018-07-07T11:52:55.705Z,2.60
2018-07-07T11:53:55.744Z,2.60
2018-07-07T11:54:55.636Z,2.60
2018-07-07T11:55:55.777Z,2.60
2018-07-07T11:56:55.743Z,2.60
2018-07-07T11:57:55.679Z,2.60
2018-07-07T11:58:55.667Z,2.60
2018-07-07T11:59:55.719Z,2.60
2018-07-07T12:00:55.776Z,2.60
2018-07-07T12:01:55.764Z,4.60
2018-07-07T12:02:55.776Z,4.60
2018-07-07T12:03:55.752Z,4.60
2018-07-07T12:04:55.767Z,4.60
2018-07-07T12:05:55.748Z,4.60
2018-07-07T12:06:55.754Z,4.60
2018-07-07T12:08:00.832Z,4.60
2018-07-07T12:08:55.698Z,4.60
2018-07-07T12:09:55.683Z,4.60
2018-07-07T12:10:55.750Z,4.60
2018-07-07T12:11:55.750Z,3.40
2018-07-07T12:12:55.716Z,3.40
2018-07-07T12:13:55.657Z,3.40
2018-07-07T12:14:55.727Z,3.40
2018-07-07T12:15:55.656Z,3.40
2018-07-07T12:16:55.662Z,3.40
2018-07-07T12:17:55.784Z,3.40
2018-07-07T12:18:55.716Z,3.40
2018-07-07T12:19:55.721Z,3.40
2018-07-07T12:20:55.694Z,3.40
2018-07-07T12:21:55.727Z,4.40
2018-07-07T12:22:55.790Z,4.40
2018-07-07T12:23:55.792Z,4.40
2018-07-07T12:24:55.736Z,4.40
2018-07-07T12:25:55.796Z,4.40
2018-07-07T12:26:55.703Z,4.40
2018-07-07T12:27:55.738Z,4.40
2018-07-07T12:28:55.722Z,4.40
2018-07-07T12:29:55.768Z,4.40
2018-07-07T12:30:55.784Z,4.40
2018-07-07T12:31:55.737Z,2.70
2018-07-07T12:32:55.739Z,2.70
2018-07-07T12:33:55.764Z,2.70
2018-07-07T12:34:55.902Z,2.70
2018-07-07T12:35:55.665Z,2.70
2018-07-07T12:36:55.766Z,2.70
2018-07-07T12:37:55.668Z,2.70
2018-07-07T12:38:55.678Z,2.70
2018-07-07T12:39:55.781Z,2.70
2018-07-07T12:40:55.741Z,2.70
2018-07-07T12:41:55.708Z,3.20
2018-07-07T12:42:55.705Z,3.20
2018-07-07T12:43:55.776Z,3.20
2018-07-07T12:44:55.706Z,3.20
2018-07-07T12:45:55.803Z,3.20
2018-07-07T12:46:55.710Z,3.20
2018-07-07T12:47:55.702Z,3.20
2018-07-07T12:48:55.777Z,3.20
2018-07-07T12:49:55.778Z,3.20
2018-07-07T12:50:55.708Z,3.20
2018-07-07T12:51:55.865Z,4.30
2018-07-07T12:52:55.798Z,4.30
2018-07-07T12:53:55.810Z,4.30
2018-07-07T12:54:55.703Z,4.30
2018-07-07T12:55:55.741Z,4.30
2018-07-07T12:56:55.809Z,4.30
2018-07-07T12:57:55.703Z,4.30
2018-07-07T12:58:55.809Z,4.30
2018-07-07T12:59:55.686Z,4.30
2018-07-07T13:00:55.722Z,4.30
2018-07-07T13:01:55.685Z,4.70
2018-07-07T13:02:55.745Z,4.70
2018-07-07T13:03:55.708Z,4.70
2018-07-07T13:04:55.784Z,4.70
2018-07-07T13:05:55.760Z,4.70
2018-07-07T13:06:55.802Z,4.70
2018-07-07T13:07:55.756Z,4.70
2018-07-07T13:08:55.807Z,4.70
2018-07-07T13:09:55.774Z,4.70
2018-07-07T13:10:55.752Z,4.70
2018-07-07T13:11:55.748Z,3.40
2018-07-07T13:12:55.792Z,3.40
2018-07-07T13:13:55.724Z,3.40
2018-07-07T13:14:55.794Z,3.40
2018-07-07T13:15:55.727Z,3.40
2018-07-07T13:16:55.801Z,3.40
2018-07-07T13:17:55.733Z,3.40
2018-07-07T13:18:55.797Z,3.40